Time;durP1;ratioP1;P1;durP2;ratioP2;P2;SDS_P1;SDS_P2;PMS_P1;PMS_P2;Temp;Humidity;BMP_temperature;BMP_pressure;BME280_temperature;BME280_humidity;BME280_pressure;Samples;Min_cycle;Max_cycle;Signal;HPM_P1;HPM_P2
2022/08/02 00:00:17;;;;;;;62.13;59.43;;;13.40;94.20;;;;;;5011512;28;20454;-85
2022/08/02 00:05:41;;;;;;;77.97;74.57;;;13.40;94.20;;;;;;5009240;28;20454;-85
2022/08/02 00:08:24;;;;;;;129.77;124.97;;;13.50;95.10;;;;;;5012029;28;20461;-85
2022/08/02 00:10:51;;;;;;;128.20;123.37;;;13.40;95.70;;;;;;5010871;28;20450;-85
2022/08/02 00:13:23;;;;;;;60.37;57.77;;;13.40;95.80;;;;;;5009034;28;20462;-85
2022/08/02 00:15:55;;;;;;;69.50;66.57;;;13.40;93.80;;;;;;5010567;28;20442;-85
2022/08/02 00:18:23;;;;;;;74.57;71.50;;;13.40;94.10;;;;;;5011154;28;20824;-85
2022/08/02 00:20:54;;;;;;;78.30;74.40;;;13.30;93.90;;;;;;5010700;28;20519;-85
2022/08/02 00:23:31;;;;;;;106.57;102.37;;;13.40;94.00;;;;;;5010578;28;20474;-85
2022/08/02 00:26:03;;;;;;;144.37;139.00;;;13.20;94.50;;;;;;5011040;28;20458;-85
2022/08/02 00:28:29;;;;;;;127.27;122.50;;;13.50;95.30;;;;;;5011858;28;20818;-85
2022/08/02 00:31:02;;;;;;;144.13;138.70;;;13.40;95.20;;;;;;5010190;28;20489;-85
2022/08/02 00:33:53;;;;;;;155.30;149.30;;;13.30;95.50;;;;;;5010450;28;20501;-85
2022/08/02 00:36:25;;;;;;;87.20;83.60;;;13.30;95.90;;;;;;5010090;28;20461;-85
2022/08/02 00:38:53;;;;;;;96.60;93.00;;;13.20;93.20;;;;;;5011295;28;20459;-85
2022/08/02 00:41:22;;;;;;;105.40;101.17;;;13.30;94.40;;;;;;5010527;28;20486;-85
2022/08/02 00:43:51;;;;;;;126.77;121.50;;;13.30;94.70;;;;;;5010232;28;20462;-85
2022/08/02 00:46:21;;;;;;;122.97;118.40;;;13.40;95.10;;;;;;5010263;28;20493;-85
2022/08/02 00:48:54;;;;;;;169.90;162.90;;;13.30;95.00;;;;;;5010764;28;20458;-85
2022/08/02 00:51:21;;;;;;;223.67;214.07;;;13.30;97.10;;;;;;5010516;28;20461;-85
2022/08/02 00:53:48;;;;;;;217.57;208.43;;;13.30;98.80;;;;;;5010804;28;20474;-85
2022/08/02 00:56:16;;;;;;;224.40;214.87;;;13.40;98.60;;;;;;5010429;28;20458;-85
2022/08/02 00:58:43;;;;;;;225.30;216.10;;;13.40;98.60;;;;;;5010535;28;20485;-85
2022/08/02 01:01:10;;;;;;;254.87;244.03;;;13.30;99.00;;;;;;5010818;28;20485;-85
2022/08/02 01:03:41;;;;;;;254.27;243.50;;;13.30;99.90;;;;;;5010115;28;20485;-85
2022/08/02 01:06:17;;;;;;;230.30;220.80;;;13.40;99.90;;;;;;5010220;28;20457;-85
2022/08/02 01:08:44;;;;;;;200.80;192.67;;;13.50;99.60;;;;;;5009425;28;21049;-85
2022/08/02 01:11:14;;;;;;;198.73;190.83;;;13.70;99.10;;;;;;5012207;28;20457;-86
2022/08/02 01:13:45;;;;;;;196.23;187.87;;;13.60;99.00;;;;;;5014108;28;20509;-85
2022/08/02 01:16:21;;;;;;;204.20;195.90;;;13.60;99.10;;;;;;5014677;28;20461;-85
2022/08/02 01:18:54;;;;;;;228.40;219.03;;;13.60;99.40;;;;;;5014413;28;20509;-85
2022/08/02 01:21:49;;;;;;;213.23;204.23;;;13.70;99.90;;;;;;5014184;28;20502;-85
2022/08/02 01:24:28;;;;;;;193.77;186.50;;;13.70;99.20;;;;;;5013576;28;20865;-86
2022/08/02 01:27:03;;;;;;;147.47;141.80;;;13.60;99.10;;;;;;5014737;28;20508;-85
2022/08/02 01:29:37;;;;;;;148.67;141.20;;;13.60;97.60;;;;;;5013505;28;20453;-86
2022/08/02 01:32:10;;;;;;;193.77;185.90;;;13.60;97.40;;;;;;5014337;28;20460;-85
2022/08/02 01:34:44;;;;;;;217.13;208.97;;;13.40;97.70;;;;;;5014264;28;20469;-85
2022/08/02 01:37:19;;;;;;;228.30;219.60;;;13.40;99.00;;;;;;5013508;28;20545;-86
2022/08/02 01:39:53;;;;;;;226.70;217.27;;;13.30;99.80;;;;;;5013884;28;20453;-85
2022/08/02 01:42:29;;;;;;;257.87;247.27;;;13.30;99.80;;;;;;5014402;28;20560;-85
2022/08/02 01:45:00;;;;;;;308.30;295.20;;;13.40;99.90;;;;;;5013854;28;20462;-85
2022/08/02 01:47:36;;;;;;;289.37;277.27;;;13.40;99.90;;;;;;5014039;28;20438;-85
2022/08/02 01:50:11;;;;;;;274.43;263.27;;;13.40;99.90;;;;;;5014100;28;20453;-85
2022/08/02 01:52:52;;;;;;;300.07;287.43;;;13.50;99.90;;;;;;5013148;28;20465;-86
2022/08/02 01:55:25;;;;;;;305.20;292.50;;;13.40;99.90;;;;;;5013213;28;21004;-85
2022/08/02 01:58:02;;;;;;;279.90;268.10;;;13.50;99.90;;;;;;5014291;28;20518;-85
2022/08/02 02:00:32;;;;;;;273.20;262.10;;;13.50;99.90;;;;;;5013238;28;20445;-85
2022/08/02 02:03:00;;;;;;;268.07;257.03;;;13.40;99.90;;;;;;5013810;28;20867;-85
2022/08/02 02:05:29;;;;;;;266.27;255.67;;;13.50;99.90;;;;;;5013266;28;20443;-85
2022/08/02 02:07:58;;;;;;;296.07;283.90;;;13.40;99.90;;;;;;5013650;28;20478;-85
2022/08/02 02:10:29;;;;;;;295.37;283.53;;;13.40;99.90;;;;;;5013504;28;20469;-85
2022/08/02 02:12:58;;;;;;;310.20;297.77;;;13.30;99.90;;;;;;5013224;28;20501;-85
2022/08/02 02:15:26;;;;;;;285.47;274.60;;;13.20;99.90;;;;;;5013042;28;20457;-85
2022/08/02 02:17:56;;;;;;;305.40;293.00;;;13.20;99.90;;;;;;5014066;28;20462;-86
2022/08/02 02:20:23;;;;;;;315.63;303.23;;;13.20;99.90;;;;;;5013594;28;20453;-85
2022/08/02 02:22:50;;;;;;;333.63;319.80;;;13.10;99.90;;;;;;5011831;28;20492;-85
2022/08/02 02:25:19;;;;;;;488.10;466.60;;;13.00;99.90;;;;;;5013046;28;20826;-85
2022/08/02 02:27:54;;;;;;;524.93;501.03;;;12.80;99.90;;;;;;5013238;28;20489;-85
2022/08/02 02:30:23;;;;;;;539.47;513.97;;;12.90;99.90;;;;;;5012615;28;20859;-85
2022/08/02 02:32:52;;;;;;;549.07;523.53;;;12.90;99.90;;;;;;5013840;28;20481;-85
2022/08/02 02:35:22;;;;;;;576.23;548.60;;;12.80;99.90;;;;;;5012687;28;20450;-85
2022/08/02 02:37:52;;;;;;;576.60;549.47;;;12.90;99.90;;;;;;5013149;28;21038;-85
2022/08/02 02:40:28;;;;;;;567.23;540.70;;;12.80;99.90;;;;;;5012841;28;20510;-85
2022/08/02 02:43:01;;;;;;;558.60;532.90;;;12.80;99.90;;;;;;5013211;28;20549;-85
2022/08/02 02:45:31;;;;;;;544.73;519.30;;;12.80;99.90;;;;;;5013307;28;20472;-85
2022/08/02 02:48:01;;;;;;;630.60;600.40;;;12.80;99.90;;;;;;5013535;28;20485;-85
2022/08/02 02:50:32;;;;;;;708.53;672.40;;;12.70;99.90;;;;;;5012509;28;20458;-85
2022/08/02 02:53:00;;;;;;;678.17;645.33;;;12.60;99.90;;;;;;5013059;28;20478;-85
2022/08/02 02:55:28;;;;;;;565.57;538.73;;;12.60;99.90;;;;;;5011872;28;20545;-85
2022/08/02 02:58:11;;;;;;;447.43;429.10;;;12.60;99.90;;;;;;5013231;28;20458;-85
2022/08/02 03:03:42;;;;;;;812.90;769.83;;;12.40;99.90;;;;;;5012721;28;20473;-85
2022/08/02 03:06:13;;;;;;;815.80;771.53;;;12.50;99.90;;;;;;5011435;28;20468;-85
2022/08/02 03:08:40;;;;;;;807.93;763.93;;;12.60;99.90;;;;;;5011833;28;20438;-85
2022/08/02 03:11:09;;;;;;;762.67;722.87;;;12.60;99.90;;;;;;5013109;28;20457;-85
2022/08/02 03:13:37;;;;;;;708.33;672.43;;;12.80;99.90;;;;;;5012091;28;20525;-85
2022/08/02 03:16:04;;;;;;;694.53;660.53;;;12.70;99.90;;;;;;5012580;28;20461;-86
2022/08/02 03:18:33;;;;;;;731.63;693.83;;;12.70;99.90;;;;;;5012287;28;21029;-85
2022/08/02 03:21:01;;;;;;;690.97;656.47;;;12.70;99.90;;;;;;5011816;28;20545;-85
2022/08/02 03:23:31;;;;;;;528.13;503.57;;;12.70;99.90;;;;;;5011865;28;20534;-85
2022/08/02 03:25:59;;;;;;;520.80;497.27;;;12.70;99.90;;;;;;5011937;28;20529;-85
2022/08/02 03:28:26;;;;;;;592.57;565.03;;;12.80;99.90;;;;;;5011946;28;20473;-85
2022/08/02 03:30:55;;;;;;;594.97;567.03;;;12.70;99.90;;;;;;5011866;28;20454;-85
2022/08/02 03:33:23;;;;;;;661.43;629.00;;;12.60;99.90;;;;;;5011416;28;20530;-85
2022/08/02 03:35:53;;;;;;;672.70;639.40;;;12.60;99.90;;;;;;5011920;28;20517;-85
2022/08/02 03:38:23;;;;;;;666.40;634.07;;;12.70;99.90;;;;;;5011904;28;20537;-86
2022/08/02 03:40:53;;;;;;;672.50;639.47;;;12.60;99.90;;;;;;5011528;28;20454;-85
2022/08/02 03:43:21;;;;;;;670.97;638.27;;;12.60;99.90;;;;;;5010932;28;20635;-85
2022/08/02 03:45:49;;;;;;;655.70;623.53;;;12.60;99.90;;;;;;5011018;28;21093;-85
2022/08/02 03:48:18;;;;;;;648.77;617.53;;;12.60;99.90;;;;;;5011713;28;20446;-85
2022/08/02 03:50:46;;;;;;;694.63;661.00;;;12.60;99.90;;;;;;5011607;28;20537;-85
2022/08/02 03:53:14;;;;;;;700.03;665.43;;;12.50;99.90;;;;;;5011814;28;20966;-85
2022/08/02 03:55:51;;;;;;;;;;;;;;;;;;;;;
2022/08/02 03:58:42;;;;;;;794.30;752.23;;;12.50;99.90;;;;;;5011054;28;20462;-85
2022/08/02 04:01:22;;;;;;;825.80;780.37;;;12.60;99.90;;;;;;5011865;28;20458;-85
2022/08/02 04:04:01;;;;;;;756.90;718.73;;;12.60;99.90;;;;;;5011276;28;20481;-86
2022/08/02 04:06:30;;;;;;;689.90;656.23;;;12.70;99.90;;;;;;5011253;28;20465;-85
2022/08/02 04:08:57;;;;;;;689.73;655.70;;;12.60;99.90;;;;;;5011437;28;20461;-85
2022/08/02 04:11:40;;;;;;;;;;;;;;;;;;;;;
2022/08/02 04:14:09;;;;;;;602.40;573.60;;;12.40;99.90;;;;;;5010672;28;20470;-85
2022/08/02 04:16:44;;;;;;;600.60;572.07;;;12.40;99.90;;;;;;5010687;28;20492;-85
2022/08/02 04:19:14;;;;;;;677.83;645.07;;;12.40;99.90;;;;;;5011595;28;20457;-85
2022/08/02 04:21:44;;;;;;;745.17;706.97;;;12.40;99.90;;;;;;5010699;28;20473;-85
2022/08/02 04:24:12;;;;;;;790.67;748.67;;;12.40;99.90;;;;;;5010260;28;20478;-85
2022/08/02 04:26:42;;;;;;;767.20;726.60;;;12.50;99.90;;;;;;5011229;28;20442;-85
2022/08/02 04:29:18;;;;;;;748.87;709.70;;;12.50;99.90;;;;;;5010754;28;20450;-85
2022/08/02 04:31:50;;;;;;;741.53;702.83;;;12.60;99.90;;;;;;5010705;28;20520;-85
2022/08/02 04:34:21;;;;;;;720.20;682.50;;;12.50;99.90;;;;;;5010689;28;20482;-85
2022/08/02 04:36:48;;;;;;;743.33;704.13;;;12.70;99.90;;;;;;5007265;28;20454;-85
2022/08/02 04:39:15;;;;;;;723.03;685.27;;;12.70;99.90;;;;;;5011354;28;20450;-85
2022/08/02 04:41:58;;;;;;;695.27;660.03;;;12.90;99.90;;;;;;5010301;28;20489;-85
2022/08/02 04:44:27;;;;;;;516.80;493.33;;;12.90;99.90;;;;;;5010431;28;20637;-85
2022/08/02 04:47:01;;;;;;;523.53;499.23;;;12.80;99.90;;;;;;5010377;28;20464;-85
2022/08/02 04:49:28;;;;;;;610.13;580.50;;;12.80;99.90;;;;;;5010990;28;20514;-85
2022/08/02 04:51:56;;;;;;;554.20;528.40;;;12.90;99.90;;;;;;5010952;28;20446;-85
2022/08/02 04:54:24;;;;;;;466.87;447.03;;;13.00;99.90;;;;;;5010476;28;20460;-85
2022/08/02 04:56:53;;;;;;;508.53;485.73;;;13.00;99.90;;;;;;5010728;28;20450;-86
2022/08/02 04:59:21;;;;;;;566.07;539.93;;;13.00;99.90;;;;;;5010382;28;20438;-85
2022/08/02 05:01:56;;;;;;;578.33;551.33;;;13.10;99.90;;;;;;5010516;28;20450;-86
2022/08/02 05:04:50;;;;;;;571.97;545.30;;;13.20;99.90;;;;;;5009988;28;20472;-86
2022/08/02 05:07:17;;;;;;;669.90;636.47;;;13.40;99.90;;;;;;5010795;28;20454;-85
2022/08/02 05:09:47;;;;;;;693.40;657.50;;;13.70;99.90;;;;;;5010063;28;20481;-85
2022/08/02 05:12:20;;;;;;;662.93;630.00;;;13.70;99.90;;;;;;5010549;28;20837;-84
2022/08/02 05:14:49;;;;;;;653.37;620.37;;;13.90;99.90;;;;;;5010452;28;20829;-85
2022/08/02 05:17:20;;;;;;;641.67;610.27;;;14.10;99.90;;;;;;5003746;28;20450;-84
2022/08/02 05:19:46;;;;;;;574.97;547.53;;;14.10;99.90;;;;;;4998273;28;20560;-86
2022/08/02 05:22:13;;;;;;;529.47;504.67;;;14.60;99.90;;;;;;4998024;28;20474;-86
2022/08/02 05:24:40;;;;;;;455.83;434.90;;;14.60;99.90;;;;;;4999066;28;20454;-85
2022/08/02 05:27:07;;;;;;;418.77;400.37;;;14.70;99.90;;;;;;4998645;28;20456;-85
2022/08/02 05:29:34;;;;;;;396.07;378.97;;;14.80;99.90;;;;;;4999395;28;20477;-85
2022/08/02 05:32:01;;;;;;;396.33;379.30;;;15.10;99.90;;;;;;4997933;28;20458;-85
2022/08/02 05:34:32;;;;;;;304.60;291.13;;;15.20;99.90;;;;;;4998750;28;20455;-86
2022/08/02 05:36:59;;;;;;;118.90;113.20;;;15.60;99.90;;;;;;5000557;28;20558;-87
2022/08/02 05:39:25;;;;;;;37.33;35.33;;;16.00;99.90;;;;;;5001157;28;20464;-86
2022/08/02 05:41:52;;;;;;;14.77;13.43;;;16.30;99.90;;;;;;5002009;28;20491;-87
2022/08/02 05:51:12;;;;;;;9.70;6.93;;;17.70;90.20;;;;;;4876531;29;20457;-89
2022/08/02 05:53:57;;;;;;;14.83;6.17;;;18.00;85.00;;;;;;4877645;29;20489;-90
2022/08/02 05:59:32;;;;;;;12.27;7.03;;;18.30;80.40;;;;;;4982205;28;21050;-89
2022/08/02 06:02:17;;;;;;;11.50;8.20;;;18.20;78.70;;;;;;4997259;28;20499;-90
2022/08/02 06:05:08;;;;;;;13.40;6.80;;;18.10;79.40;;;;;;4997537;28;20468;-90
2022/08/02 06:08:08;;;;;;;;;;;;;;;;;;;;;
2022/08/02 06:14:08;;;;;;;9.83;6.27;;;19.40;75.30;;;;;;4983099;28;20482;-90
2022/08/02 06:16:43;;;;;;;10.23;5.90;;;20.00;70.80;;;;;;4995584;28;20451;-89
2022/08/02 06:23:01;;;;;;;8.60;5.37;;;20.40;65.50;;;;;;4896598;29;20578;-90
2022/08/02 06:28:30;;;;;;;10.13;5.83;;;20.70;62.00;;;;;;4978797;28;20469;-90
2022/08/02 06:31:27;;;;;;;10.10;6.37;;;21.00;62.40;;;;;;5014801;28;20497;-90
2022/08/02 06:40:33;;;;;;;10.43;5.73;;;21.50;57.40;;;;;;4991951;28;20489;-89
2022/08/02 06:43:47;;;;;;;12.07;6.17;;;21.60;56.40;;;;;;4953468;28;20470;-90
2022/08/02 06:46:52;;;;;;;9.30;5.30;;;21.80;55.20;;;;;;4896138;29;20462;-90
2022/08/02 06:49:20;;;;;;;10.67;5.93;;;22.10;53.70;;;;;;4951259;28;20463;-91
2022/08/02 06:52:23;;;;;;;8.17;4.87;;;22.10;52.60;;;;;;5015195;28;20464;-90
2022/08/02 06:58:02;;;;;;;20.70;5.50;;;22.20;50.50;;;;;;4919289;29;20904;-85
2022/08/02 07:01:01;;;;;;;10.20;5.37;;;22.50;51.30;;;;;;4930250;28;20472;-86
2022/08/02 07:06:02;;;;;;;11.20;6.13;;;22.30;48.80;;;;;;4999617;28;20547;-86
2022/08/02 07:08:34;;;;;;;11.83;5.20;;;22.40;48.10;;;;;;4998502;28;20461;-86
2022/08/02 07:11:22;;;;;;;;;;;;;;;;;;;;;
2022/08/02 07:14:11;;;;;;;8.07;5.00;;;23.00;47.60;;;;;;5000808;28;20523;-86
2022/08/02 07:16:44;;;;;;;9.17;5.47;;;22.80;45.60;;;;;;5000681;28;20950;-86
2022/08/02 07:19:17;;;;;;;12.43;5.80;;;22.80;45.70;;;;;;4999418;28;20496;-86
2022/08/02 07:24:30;;;;;;;12.70;5.70;;;23.00;44.90;;;;;;5131041;23;20497;-85
2022/08/02 07:30:09;;;;;;;10.57;5.20;;;23.20;43.50;;;;;;5016112;28;20446;-86
2022/08/02 07:32:46;;;;;;;;;;;;;;;;;;;;;
2022/08/02 07:35:13;;;;;;;14.00;5.70;;;23.00;43.80;;;;;;5018522;28;20462;-86
2022/08/02 07:38:34;;;;;;;10.40;5.40;;;23.00;44.20;;;;;;5019796;28;20455;-86
2022/08/02 07:41:03;;;;;;;8.77;4.77;;;23.10;44.40;;;;;;5019500;28;20460;-85
2022/08/02 07:43:31;;;;;;;9.30;5.43;;;23.20;47.30;;;;;;5019485;28;21014;-86
2022/08/02 07:46:00;;;;;;;9.00;5.03;;;23.00;45.10;;;;;;5018998;28;20968;-86
2022/08/02 07:48:29;;;;;;;8.30;5.50;;;23.20;44.50;;;;;;5020073;28;20505;-86
2022/08/02 07:51:01;;;;;;;9.73;4.73;;;23.20;45.00;;;;;;5020000;28;20538;-86
2022/08/02 07:53:31;;;;;;;8.93;4.90;;;23.30;45.30;;;;;;5018876;28;20550;-86
2022/08/02 07:55:58;;;;;;;7.63;4.77;;;23.30;44.10;;;;;;5019738;28;20458;-85
2022/08/02 07:58:28;;;;;;;9.60;5.40;;;23.60;44.50;;;;;;5019062;28;20447;-86
2022/08/02 08:00:56;;;;;;;11.40;5.07;;;23.70;43.50;;;;;;5019343;28;20518;-86
2022/08/02 08:03:25;;;;;;;9.33;4.97;;;23.60;42.60;;;;;;5019282;28;20479;-86
2022/08/02 08:05:53;;;;;;;11.40;4.90;;;23.90;42.70;;;;;;5019574;28;20486;-86
2022/08/02 08:08:20;;;;;;;8.57;3.87;;;24.00;42.00;;;;;;5019682;28;20454;-85
2022/08/02 08:10:47;;;;;;;6.90;3.50;;;24.40;40.20;;;;;;5019109;28;20920;-86
2022/08/02 08:13:14;;;;;;;9.50;4.73;;;24.70;39.70;;;;;;5018337;28;20508;-86
2022/08/02 08:15:45;;;;;;;7.67;4.30;;;25.00;37.90;;;;;;5018058;28;20452;-86
2022/08/02 08:18:12;;;;;;;7.10;4.27;;;25.30;34.20;;;;;;5016568;28;20488;-86
2022/08/02 08:20:40;;;;;;;6.10;3.30;;;25.90;33.20;;;;;;5015597;28;20527;-86
2022/08/02 08:23:07;;;;;;;8.60;4.13;;;26.10;30.80;;;;;;5015032;28;20473;-86
2022/08/02 08:25:46;;;;;;;11.20;4.23;;;26.00;31.30;;;;;;5016019;28;20949;-86
2022/08/02 08:28:13;;;;;;;10.00;3.20;;;26.30;31.50;;;;;;5015733;28;20461;-86
2022/08/02 08:30:46;;;;;;;8.63;4.07;;;26.80;28.70;;;;;;5014272;28;20453;-86
2022/08/02 08:33:13;;;;;;;11.90;3.83;;;26.70;25.80;;;;;;5013951;28;20531;-86
2022/08/02 08:35:40;;;;;;;6.50;3.53;;;26.80;24.30;;;;;;5014628;28;20453;-86
2022/08/02 08:38:07;;;;;;;7.70;3.43;;;27.50;24.70;;;;;;5014323;28;20449;-86
2022/08/02 08:40:35;;;;;;;10.20;3.83;;;27.90;22.70;;;;;;5013754;28;20448;-86
2022/08/02 08:43:02;;;;;;;8.10;3.20;;;28.00;21.40;;;;;;5017849;28;20473;-85
2022/08/02 08:45:35;;;;;;;7.60;3.20;;;28.20;22.20;;;;;;5018370;28;20843;-86
2022/08/02 08:48:14;;;;;;;8.00;3.60;;;28.50;19.60;;;;;;5013984;28;20863;-86
2022/08/02 08:50:49;;;;;;;10.33;4.00;;;28.60;18.20;;;;;;5013404;28;20439;-86
2022/08/02 08:53:18;;;;;;;12.67;4.23;;;28.60;17.30;;;;;;5013255;28;20487;-86
2022/08/02 08:55:45;;;;;;;7.70;4.50;;;28.50;18.30;;;;;;5013845;28;20518;-86
2022/08/02 08:58:12;;;;;;;11.93;3.90;;;28.70;19.70;;;;;;5013805;28;20453;-86
2022/08/02 09:00:41;;;;;;;11.30;5.07;;;29.20;18.10;;;;;;5014027;28;20457;-86
2022/08/02 09:03:12;;;;;;;11.43;3.60;;;29.30;15.60;;;;;;5013782;28;20468;-86
2022/08/02 09:05:42;;;;;;;7.17;3.90;;;29.40;14.20;;;;;;5013358;28;20460;-86
2022/08/02 09:08:09;;;;;;;8.63;4.43;;;30.10;14.80;;;;;;5013141;28;20506;-86
2022/08/02 09:10:40;;;;;;;8.27;4.50;;;29.20;13.40;;;;;;5012586;28;20452;-86
2022/08/02 09:13:10;;;;;;;8.70;4.30;;;29.60;15.90;;;;;;5012852;28;20481;-87
2022/08/02 09:15:38;;;;;;;8.50;5.10;;;29.20;14.40;;;;;;5012621;28;20467;-86
2022/08/02 09:18:06;;;;;;;7.33;4.40;;;29.20;14.70;;;;;;5012838;28;20533;-86
2022/08/02 09:20:35;;;;;;;6.57;3.57;;;29.00;15.60;;;;;;5012988;28;20560;-86
2022/08/02 09:23:06;;;;;;;6.23;3.63;;;29.20;14.90;;;;;;5012854;28;20834;-86
2022/08/02 09:25:34;;;;;;;5.73;3.13;;;29.80;13.20;;;;;;5013232;28;20432;-86
2022/08/02 09:28:03;;;;;;;8.90;3.07;;;30.30;11.00;;;;;;5013343;28;20460;-86
2022/08/02 09:30:29;;;;;;;8.60;3.23;;;30.80;7.30;;;;;;5012966;28;20498;-86
2022/08/02 09:32:56;;;;;;;13.23;3.20;;;31.40;7.20;;;;;;5016469;28;20489;-86
2022/08/02 09:35:36;;;;;;;7.33;3.10;;;31.00;7.70;;;;;;5017351;28;20448;-86
2022/08/02 09:38:09;;;;;;;8.17;2.70;;;30.80;5.80;;;;;;5017140;28;20832;-86
2022/08/02 09:40:37;;;;;;;7.37;3.30;;;30.80;5.90;;;;;;5017235;28;20927;-86
2022/08/02 09:43:04;;;;;;;9.30;2.70;;;30.90;5.70;;;;;;5016143;28;20997;-86
2022/08/02 09:45:33;;;;;;;7.87;2.93;;;30.10;5.60;;;;;;5016719;28;20461;-86
2022/08/02 09:48:00;;;;;;;8.53;3.33;;;29.70;9.60;;;;;;5016022;28;20452;-86
2022/08/02 09:50:27;;;;;;;8.10;3.40;;;29.20;10.40;;;;;;5016730;28;20459;-86
2022/08/02 09:52:57;;;;;;;10.23;3.33;;;29.00;10.40;;;;;;5016689;28;20481;-86
2022/08/02 09:55:24;;;;;;;9.43;3.10;;;28.70;11.20;;;;;;5016439;28;20481;-86
2022/08/02 09:57:51;;;;;;;6.53;2.70;;;28.80;10.20;;;;;;5016330;28;20449;-86
2022/08/02 10:00:19;;;;;;;5.67;2.47;;;28.50;9.70;;;;;;5016761;28;20452;-86
2022/08/02 10:03:08;;;;;;;7.30;2.60;;;29.40;7.80;;;;;;5017024;28;20458;-87
2022/08/02 10:05:54;;;;;;;5.50;2.73;;;29.60;8.60;;;;;;5015855;28;20618;-86
2022/08/02 10:08:27;;;;;;;6.47;2.57;;;29.30;6.90;;;;;;5015251;28;20431;-86
2022/08/02 10:11:19;;;;;;;;;;;;;;;;;;;;;
2022/08/02 10:17:09;;;;;;;5.87;2.30;;;29.30;5.60;;;;;;5014361;28;20416;-87
2022/08/02 10:19:39;;;;;;;6.03;2.50;;;29.40;6.30;;;;;;5015382;28;20952;-87
2022/08/02 10:22:29;;;;;;;5.83;2.10;;;29.10;4.70;;;;;;5014799;28;20457;-86
2022/08/02 10:25:07;;;;;;;5.10;2.10;;;28.60;5.20;;;;;;5014881;28;20539;-86
2022/08/02 10:27:36;;;;;;;6.60;2.22;;;29.20;6.20;;;;;;5019088;28;20509;-86
2022/08/02 10:30:03;;;;;;;6.27;2.70;;;30.50;3.30;;;;;;5016681;28;20204;-86
2022/08/02 10:32:33;;;;;;;8.00;3.00;;;31.10;1.00;;;;;;5015260;28;20455;-87
2022/08/02 10:35:06;;;;;;;5.57;2.10;;;32.00;1.00;;;;;;5015014;28;20485;-86
2022/08/02 10:37:41;;;;;;;8.10;1.60;;;31.90;1.00;;;;;;5015204;28;20784;-86
2022/08/02 10:40:21;;;;;;;5.30;2.13;;;30.80;1.00;;;;;;5015912;28;20547;-86
2022/08/02 10:46:40;;;;;;;6.00;2.00;;;29.70;2.20;;;;;;5015528;28;20524;-86
2022/08/02 10:49:48;;;;;;;;;;;;;;;;;;;;;
2022/08/02 10:53:08;;;;;;;5.20;2.10;;;29.10;1.60;;;;;;4970285;28;20469;-86
2022/08/02 10:55:45;;;;;;;5.47;2.20;;;29.10;2.50;;;;;;4940038;28;20484;-87
2022/08/02 10:58:20;;;;;;;9.87;2.70;;;29.80;2.90;;;;;;5015224;28;20979;-86
2022/08/02 11:00:47;;;;;;;6.00;2.20;;;30.30;1.50;;;;;;5015780;28;20460;-87
2022/08/02 11:03:39;;;;;;;5.13;2.07;;;30.80;1.00;;;;;;5015599;28;20488;-86
2022/08/02 11:06:07;;;;;;;5.43;2.20;;;30.80;1.00;;;;;;5015548;28;20449;-85
2022/08/02 11:08:35;;;;;;;6.00;2.50;;;30.10;1.00;;;;;;5016348;28;20456;-86
2022/08/02 11:11:17;;;;;;;5.77;2.60;;;30.20;1.00;;;;;;5015138;28;20514;-87
2022/08/02 11:14:00;;;;;;;7.10;2.30;;;29.70;1.00;;;;;;5015806;28;20539;-86
2022/08/02 11:17:01;;;;;;;5.13;2.27;;;30.00;1.20;;;;;;5015280;28;20531;-86
2022/08/02 11:19:28;;;;;;;6.63;2.93;;;29.90;1.70;;;;;;5015424;28;20423;-86
2022/08/02 11:22:01;;;;;;;5.97;2.03;;;30.00;1.10;;;;;;5017177;28;20449;-86
2022/08/02 11:24:29;;;;;;;6.43;2.70;;;30.80;1.00;;;;;;5014766;28;20453;-87
2022/08/02 11:26:58;;;;;;;11.53;2.37;;;30.90;1.00;;;;;;5014880;28;20548;-87
2022/08/02 11:29:36;;;;;;;4.80;2.10;;;31.50;1.00;;;;;;5014349;28;20800;-86
2022/08/02 11:32:04;;;;;;;5.07;2.23;;;31.60;1.00;;;;;;5014162;28;20427;-86
2022/08/02 11:34:32;;;;;;;5.67;2.30;;;31.70;1.00;;;;;;5013926;28;20959;-86
2022/08/02 11:36:59;;;;;;;7.67;2.23;;;32.30;1.00;;;;;;5014456;28;20432;-86
2022/08/02 11:39:26;;;;;;;5.10;2.10;;;32.10;1.00;;;;;;5014418;28;20463;-87
2022/08/02 11:41:55;;;;;;;7.23;1.93;;;33.00;1.00;;;;;;5014648;28;20464;-86
2022/08/02 11:44:24;;;;;;;5.30;2.10;;;34.10;1.00;;;;;;5014213;28;20975;-86
2022/08/02 11:46:56;;;;;;;5.60;2.20;;;33.90;1.00;;;;;;5017964;28;20451;-82
2022/08/02 11:49:25;;;;;;;5.93;2.10;;;33.40;1.00;;;;;;5024728;28;20202;-85
2022/08/02 11:51:53;;;;;;;9.80;1.60;;;32.70;1.00;;;;;;5018596;28;20872;-84
2022/08/02 11:54:25;;;;;;;5.27;2.10;;;33.00;1.00;;;;;;5018542;28;20488;-84
2022/08/02 11:56:53;;;;;;;5.57;1.90;;;32.90;1.00;;;;;;5018824;28;20958;-84
2022/08/02 11:59:23;;;;;;;9.30;2.37;;;32.50;1.00;;;;;;5017836;28;20465;-84
2022/08/02 12:01:49;;;;;;;5.13;1.80;;;32.50;1.00;;;;;;5017489;28;20457;-84
2022/08/02 12:04:19;;;;;;;5.93;2.07;;;32.10;1.00;;;;;;5016242;28;20473;-83
2022/08/02 12:06:54;;;;;;;4.50;1.80;;;32.10;1.00;;;;;;5017798;28;20453;-84
2022/08/02 12:09:21;;;;;;;4.33;1.70;;;31.90;1.00;;;;;;5014869;28;20457;-85
2022/08/02 12:11:49;;;;;;;4.60;1.60;;;31.70;1.00;;;;;;5001659;28;20831;-85
2022/08/02 12:14:16;;;;;;;5.00;1.90;;;31.60;1.00;;;;;;5014816;28;20505;-84
2022/08/02 12:19:31;;;;;;;6.13;2.40;;;31.50;1.00;;;;;;5015932;28;20441;-85
2022/08/02 12:22:13;;;;;;;6.03;2.90;;;30.90;1.00;;;;;;5016333;28;20457;-84
2022/08/02 12:24:42;;;;;;;5.43;2.00;;;31.50;1.00;;;;;;5016466;28;20424;-84
2022/08/02 12:27:08;;;;;;;6.50;2.20;;;31.70;1.00;;;;;;5019772;28;20453;-84
2022/08/02 12:29:37;;;;;;;5.87;2.37;;;31.90;1.00;;;;;;5019832;28;20453;-84
2022/08/02 12:32:06;;;;;;;6.33;2.27;;;32.10;1.00;;;;;;5018728;28;20459;-83
2022/08/02 12:34:34;;;;;;;5.60;1.80;;;33.40;1.00;;;;;;5019169;28;20548;-83
2022/08/02 12:37:03;;;;;;;5.10;1.97;;;34.10;1.00;;;;;;5019208;28;20464;-83
2022/08/02 12:39:36;;;;;;;4.70;1.70;;;34.40;1.00;;;;;;5018946;28;20464;-83
2022/08/02 12:42:03;;;;;;;4.73;2.20;;;35.10;1.00;;;;;;5020150;28;20453;-81
2022/08/02 12:44:30;;;;;;;5.73;2.43;;;35.20;1.00;;;;;;5020007;28;20456;-81
2022/08/02 12:47:01;;;;;;;5.20;2.20;;;33.90;1.00;;;;;;5022079;28;20830;-81
2022/08/02 12:49:44;;;;;;;9.77;2.27;;;33.50;1.00;;;;;;5016946;28;20463;-84
2022/08/02 12:52:21;;;;;;;5.53;2.33;;;33.00;1.00;;;;;;5012298;28;20511;-84
2022/08/02 12:54:48;;;;;;;6.73;2.00;;;33.20;1.00;;;;;;5012675;28;20517;-85
2022/08/02 12:57:18;;;;;;;5.03;2.17;;;33.40;1.00;;;;;;5013684;28;20453;-85
2022/08/02 12:59:51;;;;;;;7.77;2.67;;;33.00;1.00;;;;;;5013113;28;20455;-86
2022/08/02 13:02:18;;;;;;;6.93;3.77;;;33.20;1.00;;;;;;5013757;28;20449;-85
2022/08/02 13:04:46;;;;;;;6.03;2.53;;;33.50;1.00;;;;;;5012602;28;21062;-86
2022/08/02 13:07:13;;;;;;;5.50;2.10;;;34.60;1.00;;;;;;5012150;28;20437;-85
2022/08/02 13:09:43;;;;;;;5.60;2.40;;;35.80;1.00;;;;;;5012666;28;20453;-86
2022/08/02 13:12:10;;;;;;;4.90;1.93;;;35.90;1.00;;;;;;5012559;28;20459;-86
2022/08/02 13:14:37;;;;;;;7.50;2.20;;;35.50;1.00;;;;;;5012796;28;20480;-87
2022/08/02 13:17:04;;;;;;;5.13;2.57;;;36.00;1.00;;;;;;5012695;28;20431;-86
2022/08/02 13:19:31;;;;;;;6.17;2.70;;;35.80;1.00;;;;;;5012848;28;20460;-87
2022/08/02 13:21:59;;;;;;;7.90;3.50;;;36.00;1.00;;;;;;5012287;28;20470;-86
2022/08/02 13:24:26;;;;;;;8.17;2.63;;;36.00;1.00;;;;;;5011930;28;20552;-86
2022/08/02 13:26:53;;;;;;;6.53;2.47;;;36.10;1.00;;;;;;5012634;28;20433;-86
2022/08/02 13:29:19;;;;;;;7.50;2.23;;;36.20;1.00;;;;;;5012602;28;20459;-86
2022/08/02 13:35:12;;;;;;;4.93;2.30;;;36.10;1.00;;;;;;5090357;23;20965;-89
2022/08/02 13:37:58;;;;;;;6.33;2.13;;;35.30;1.00;;;;;;4951292;29;20455;-88
2022/08/02 13:43:54;;;;;;;8.40;2.70;;;34.50;1.00;;;;;;5011851;28;20838;-89
2022/08/02 13:46:34;;;;;;;7.07;2.70;;;34.00;1.00;;;;;;5013002;28;20477;-89
2022/08/02 13:50:08;;;;;;;6.17;2.70;;;34.00;1.00;;;;;;5015124;28;20802;-89
2022/08/02 13:52:52;;;;;;;7.07;2.40;;;34.90;1.00;;;;;;5013025;28;20480;-89
2022/08/02 13:55:53;;;;;;;6.90;2.20;;;36.40;1.00;;;;;;5012775;28;20868;-89
2022/08/02 13:58:43;;;;;;;5.00;1.90;;;36.70;1.00;;;;;;5014450;28;20426;-87
2022/08/02 14:05:06;;;;;;;6.07;2.43;;;38.10;1.00;;;;;;5002022;28;20506;-90
2022/08/02 14:08:38;;;;;;;6.50;2.40;;;38.90;1.00;;;;;;5021013;28;20933;-89
2022/08/02 14:14:33;;;;;;;6.60;1.90;;;37.40;1.00;;;;;;5007102;28;20496;-85
2022/08/02 14:17:04;;;;;;;4.90;2.00;;;36.60;1.00;;;;;;5021327;28;20447;-86